Time;durP1;ratioP1;P1;durP2;ratioP2;P2;SDS_P1;SDS_P2;PMS_P1;PMS_P2;Temp;Humidity;BMP_temperature;BMP_pressure;BME280_temperature;BME280_humidity;BME280_pressure;Samples;Min_cycle;Max_cycle;Signal;HPM_P1;HPM_P2
2024/01/02 00:02:19;;;;;;;7.22;2.30;;;;;;;5.21;100.00;100160.66;6276845;28;20060;-69
2024/01/02 00:05:20;;;;;;;11.52;2.45;;;;;;;5.18;100.00;100156.44;6276541;28;20052;-69
2024/01/02 00:08:22;;;;;;;6.13;2.03;;;;;;;5.19;100.00;100142.50;6275905;28;20357;-69
2024/01/02 00:11:25;;;;;;;9.75;2.22;;;;;;;5.19;100.00;100144.25;6276069;28;20361;-68
2024/01/02 00:14:28;;;;;;;12.10;2.35;;;;;;;5.14;100.00;100136.63;6275805;28;20049;-70
2024/01/02 00:17:29;;;;;;;7.43;2.20;;;;;;;5.14;100.00;100128.81;6276230;28;20430;-68
2024/01/02 00:20:30;;;;;;;11.18;1.67;;;;;;;5.16;100.00;100126.13;6276315;28;20056;-69
2024/01/02 00:23:32;;;;;;;8.55;2.55;;;;;;;5.19;100.00;100120.81;6276417;28;20055;-69
2024/01/02 00:26:35;;;;;;;5.75;1.73;;;;;;;5.17;100.00;100115.66;6275945;28;20048;-68
2024/01/02 00:29:36;;;;;;;11.68;2.40;;;;;;;5.19;100.00;100113.00;6276905;28;20053;-69
2024/01/02 00:32:38;;;;;;;10.35;1.88;;;;;;;5.23;100.00;100109.38;6276400;28;20475;-69
2024/01/02 00:35:39;;;;;;;11.70;3.13;;;;;;;5.22;100.00;100108.53;6276027;28;20052;-69
2024/01/02 00:38:40;;;;;;;8.82;1.75;;;;;;;5.25;100.00;100104.91;6276911;28;20049;-68
2024/01/02 00:41:43;;;;;;;6.57;1.52;;;;;;;5.26;100.00;100091.81;6277107;28;20049;-68
2024/01/02 00:44:46;;;;;;;6.32;1.77;;;;;;;5.25;100.00;100090.13;6275397;28;20055;-69
2024/01/02 00:47:47;;;;;;;6.20;1.80;;;;;;;5.27;100.00;100080.50;6275783;28;20120;-69
2024/01/02 00:50:49;;;;;;;5.55;1.70;;;;;;;5.20;100.00;100076.47;6277649;28;20040;-69
2024/01/02 00:53:50;;;;;;;10.77;2.05;;;;;;;5.21;100.00;100069.50;6276981;28;20045;-69
2024/01/02 00:56:53;;;;;;;10.98;1.88;;;;;;;5.22;100.00;100065.97;6277502;28;20060;-69
2024/01/02 00:59:54;;;;;;;21.88;1.73;;;;;;;5.24;100.00;100067.59;6277399;28;20056;-70
2024/01/02 01:02:55;;;;;;;8.40;1.88;;;;;;;5.26;100.00;100065.78;6276417;28;20052;-69
2024/01/02 01:05:57;;;;;;;8.55;1.83;;;;;;;5.35;100.00;100062.78;6274307;28;20049;-69
2024/01/02 01:08:58;;;;;;;10.05;2.13;;;;;;;5.39;100.00;100047.03;6275551;28;20052;-70
2024/01/02 01:12:01;;;;;;;4.15;1.33;;;;;;;5.45;100.00;100036.31;6275099;28;20377;-70
2024/01/02 01:15:02;;;;;;;11.63;1.95;;;;;;;5.42;100.00;100037.31;6275705;28;20041;-70
2024/01/02 01:18:04;;;;;;;13.43;2.40;;;;;;;5.50;100.00;100031.78;6275457;28;20037;-70
2024/01/02 01:21:05;;;;;;;5.07;1.20;;;;;;;5.52;100.00;100033.38;6275333;28;20044;-70
2024/01/02 01:24:07;;;;;;;9.25;1.42;;;;;;;5.54;100.00;100012.47;6274952;28;20048;-70
2024/01/02 01:27:09;;;;;;;5.95;1.17;;;;;;;5.55;100.00;100015.03;6274625;28;20049;-70
2024/01/02 01:30:11;;;;;;;2.60;1.05;;;;;;;5.63;100.00;100003.38;6275503;28;20429;-70
2024/01/02 01:33:12;;;;;;;8.27;1.50;;;;;;;5.66;100.00;100001.50;6275022;28;20057;-70
2024/01/02 01:36:14;;;;;;;8.45;2.13;;;;;;;5.69;100.00;99990.94;6274662;28;20051;-70
2024/01/02 01:39:15;;;;;;;7.70;1.27;;;;;;;5.67;100.00;99995.38;6275143;28;20045;-70
2024/01/02 01:42:18;;;;;;;8.00;1.15;;;;;;;5.64;100.00;99992.06;6275131;28;20048;-69
2024/01/02 01:45:19;;;;;;;5.70;1.20;;;;;;;5.66;100.00;99990.22;6273935;28;20045;-70
2024/01/02 01:48:22;;;;;;;11.65;1.95;;;;;;;5.64;100.00;99971.22;6274517;28;20049;-70
2024/01/02 01:51:23;;;;;;;2.95;1.00;;;;;;;5.67;100.00;99968.47;6274538;28;20049;-69
2024/01/02 01:54:26;;;;;;;10.23;1.67;;;;;;;5.71;100.00;99955.22;6274404;28;20053;-68
2024/01/02 01:57:29;;;;;;;14.85;1.52;;;;;;;5.73;100.00;99952.56;6278144;28;20045;-68
2024/01/02 02:00:31;;;;;;;6.38;1.13;;;;;;;5.70;100.00;99950.91;6279321;28;20057;-69
2024/01/02 02:03:33;;;;;;;3.25;1.50;;;;;;;5.76;100.00;99942.81;6278983;28;20045;-69
2024/01/02 02:06:35;;;;;;;3.70;1.00;;;;;;;5.75;100.00;99933.31;6278177;28;20480;-68
2024/01/02 02:09:36;;;;;;;5.25;1.17;;;;;;;5.77;100.00;99922.81;6279082;28;20060;-68
2024/01/02 02:12:39;;;;;;;7.93;1.45;;;;;;;5.77;100.00;99913.25;6278713;28;20060;-69
2024/01/02 02:15:41;;;;;;;6.10;1.27;;;;;;;5.74;100.00;99908.16;6278248;28;20330;-69
2024/01/02 02:18:43;;;;;;;7.07;1.42;;;;;;;5.70;100.00;99896.19;6278775;28;20606;-69
2024/01/02 02:21:46;;;;;;;13.60;1.70;;;;;;;5.74;100.00;99891.69;6278773;28;20049;-68
2024/01/02 02:24:49;;;;;;;6.82;1.67;;;;;;;5.77;100.00;99881.97;6278163;28;20467;-69
2024/01/02 02:27:50;;;;;;;5.95;1.23;;;;;;;5.80;100.00;99879.19;6278754;28;20043;-69
2024/01/02 02:30:52;;;;;;;8.55;1.52;;;;;;;5.82;100.00;99876.53;6278556;28;20051;-68
2024/01/02 02:33:53;;;;;;;7.97;1.25;;;;;;;5.83;100.00;99862.56;6278427;28;20052;-69
2024/01/02 02:36:54;;;;;;;9.68;2.17;;;;;;;5.87;100.00;99860.66;6277867;28;20053;-68
2024/01/02 02:39:57;;;;;;;8.65;1.20;;;;;;;5.89;100.00;99851.81;6278223;28;20195;-69
2024/01/02 02:42:58;;;;;;;5.47;1.00;;;;;;;5.87;100.00;99843.25;6278175;28;20045;-68
2024/01/02 02:46:00;;;;;;;9.82;1.27;;;;;;;5.86;100.00;99833.75;6277574;28;20053;-71
2024/01/02 02:49:01;;;;;;;4.63;1.30;;;;;;;5.89;100.00;99830.13;6278256;28;20041;-69
2024/01/02 02:52:03;;;;;;;8.27;1.65;;;;;;;5.94;100.00;99830.78;6278098;28;20048;-69
2024/01/02 02:55:07;;;;;;;11.93;1.27;;;;;;;5.97;100.00;99820.19;6278265;28;20048;-68
2024/01/02 02:58:08;;;;;;;3.42;1.20;;;;;;;5.99;100.00;99808.75;6277914;28;20323;-68
2024/01/02 03:01:20;;;;;;;9.23;1.20;;;;;;;5.99;100.00;99794.88;6278137;28;20045;-68
2024/01/02 03:04:22;;;;;;;4.95;1.38;;;;;;;5.96;100.00;99788.06;6277230;28;20056;-68
2024/01/02 03:07:23;;;;;;;9.38;1.27;;;;;;;5.97;100.00;99789.75;6276884;28;20051;-68
2024/01/02 03:10:26;;;;;;;10.07;1.63;;;;;;;5.98;100.00;99777.56;6277674;28;20353;-68
2024/01/02 03:13:28;;;;;;;8.00;1.15;;;;;;;5.99;100.00;99774.84;6277506;28;20045;-68
2024/01/02 03:16:30;;;;;;;6.53;0.80;;;;;;;6.02;100.00;99768.66;6276716;28;20053;-68
2024/01/02 03:19:32;;;;;;;7.20;1.00;;;;;;;6.00;100.00;99758.31;6277494;28;20049;-68
2024/01/02 03:22:33;;;;;;;7.53;0.95;;;;;;;6.02;100.00;99747.78;6277232;28;20051;-69
2024/01/02 03:25:37;;;;;;;3.38;0.93;;;;;;;6.01;100.00;99735.69;6276716;28;20056;-69
2024/01/02 03:28:38;;;;;;;3.05;0.57;;;;;;;6.00;100.00;99729.63;6277123;28;20087;-68
2024/01/02 03:31:39;;;;;;;5.13;1.10;;;;;;;5.98;100.00;99723.63;6276999;28;20377;-68
2024/01/02 03:34:41;;;;;;;2.85;1.00;;;;;;;5.95;100.00;99710.75;6276501;28;20049;-68
2024/01/02 03:37:42;;;;;;;11.13;1.45;;;;;;;5.96;100.00;99709.00;6274025;28;20048;-68
2024/01/02 03:40:45;;;;;;;15.57;2.25;;;;;;;5.98;100.00;99707.16;6277015;28;20432;-69
2024/01/02 03:43:47;;;;;;;5.43;1.23;;;;;;;5.99;100.00;99699.22;6276500;28;20345;-69
2024/01/02 03:46:48;;;;;;;13.82;1.52;;;;;;;6.03;100.00;99685.13;6276012;28;20049;-69
2024/01/02 03:49:49;;;;;;;4.93;0.90;;;;;;;6.02;100.00;99687.81;6276649;28;20041;-69
2024/01/02 03:52:51;;;;;;;7.55;1.08;;;;;;;6.00;100.00;99680.06;6276143;28;20040;-68
2024/01/02 03:55:53;;;;;;;5.50;1.33;;;;;;;6.00;100.00;99664.44;6275863;28;20361;-68
2024/01/02 03:58:55;;;;;;;6.30;1.67;;;;;;;6.01;100.00;99658.28;6276741;28;20037;-68
2024/01/02 04:01:56;;;;;;;8.13;1.25;;;;;;;6.02;100.00;99644.31;6275797;28;20052;-69
2024/01/02 04:04:57;;;;;;;7.63;1.45;;;;;;;5.95;100.00;99634.28;6275993;28;20437;-69
2024/01/02 04:07:59;;;;;;;9.27;1.17;;;;;;;5.92;100.00;99624.88;6274538;28;20044;-69
2024/01/02 04:11:01;;;;;;;5.57;0.82;;;;;;;5.90;100.00;99618.00;6276436;28;20049;-69
2024/01/02 04:14:03;;;;;;;7.00;1.80;;;;;;;5.93;100.00;99607.44;6275990;28;20045;-69
2024/01/02 04:17:04;;;;;;;9.43;1.02;;;;;;;5.95;100.00;99600.38;6275107;28;20056;-69
2024/01/02 04:20:06;;;;;;;5.22;0.60;;;;;;;5.87;100.00;99592.94;6275592;28;20064;-69
2024/01/02 04:23:08;;;;;;;6.38;0.93;;;;;;;5.82;100.00;99592.34;6275562;28;20120;-69
2024/01/02 04:26:10;;;;;;;2.92;0.70;;;;;;;5.79;100.00;99579.47;6275228;28;20338;-69
2024/01/02 04:29:12;;;;;;;6.00;1.08;;;;;;;5.79;100.00;99567.28;6275621;28;20041;-69
2024/01/02 04:32:15;;;;;;;4.60;1.00;;;;;;;5.77;100.00;99563.06;6275629;28;20041;-69
2024/01/02 04:35:16;;;;;;;5.45;1.10;;;;;;;5.76;100.00;99554.38;6274997;28;20467;-69
2024/01/02 04:38:18;;;;;;;5.18;0.73;;;;;;;5.75;100.00;99539.69;6275241;28;20354;-69
2024/01/02 04:41:21;;;;;;;6.55;1.02;;;;;;;5.68;100.00;99535.72;6275262;28;20048;-69
2024/01/02 04:44:22;;;;;;;7.57;1.17;;;;;;;5.73;100.00;99527.66;6275101;28;20044;-69
2024/01/02 04:47:23;;;;;;;6.90;1.63;;;;;;;5.75;100.00;99512.78;6274926;28;20357;-69
2024/01/02 04:50:24;;;;;;;5.65;1.02;;;;;;;5.74;100.00;99506.72;6275398;28;20049;-69
2024/01/02 04:53:26;;;;;;;3.47;1.00;;;;;;;5.79;100.00;99496.88;6275172;28;20049;-70
2024/01/02 04:56:28;;;;;;;3.00;0.90;;;;;;;5.75;100.00;99492.75;6274662;28;20045;-69
2024/01/02 04:59:30;;;;;;;7.78;0.75;;;;;;;5.77;100.00;99490.09;6275349;28;20457;-69
2024/01/02 05:02:32;;;;;;;4.25;0.75;;;;;;;5.73;100.00;99476.38;6274504;28;20045;-69
2024/01/02 05:05:33;;;;;;;2.13;0.82;;;;;;;5.76;100.00;99468.38;6274624;28;20369;-69
2024/01/02 05:08:35;;;;;;;10.02;2.10;;;;;;;5.81;100.00;99463.78;6273940;28;20048;-69
2024/01/02 05:11:38;;;;;;;7.38;0.70;;;;;;;5.81;100.00;99460.28;6275146;28;20053;-69
2024/01/02 05:14:40;;;;;;;6.63;1.33;;;;;;;5.80;100.00;99448.19;6274303;28;20044;-69
2024/01/02 05:17:41;;;;;;;10.70;1.20;;;;;;;5.76;100.00;99455.34;6274518;28;20048;-70
2024/01/02 05:20:43;;;;;;;5.53;0.88;;;;;;;5.82;100.00;99439.38;6275061;28;20052;-69
2024/01/02 05:23:44;;;;;;;3.63;0.93;;;;;;;5.79;100.00;99434.31;6274506;28;20052;-69
2024/01/02 05:26:47;;;;;;;4.70;0.70;;;;;;;5.85;100.00;99425.31;6274352;28;20365;-69
2024/01/02 05:29:48;;;;;;;8.50;1.25;;;;;;;5.81;100.00;99418.59;6276156;28;20044;-69
2024/01/02 05:32:49;;;;;;;2.58;0.68;;;;;;;5.80;100.00;99402.09;6279277;28;20433;-69
2024/01/02 05:35:51;;;;;;;7.68;0.95;;;;;;;5.84;100.00;99405.41;6278888;28;20485;-69
2024/01/02 05:38:52;;;;;;;3.65;0.80;;;;;;;5.76;100.00;99392.78;6279987;28;20048;-69
2024/01/02 05:41:55;;;;;;;3.20;0.70;;;;;;;5.85;100.00;99384.44;6279589;28;20056;-69
2024/01/02 05:44:56;;;;;;;5.95;1.13;;;;;;;5.95;100.00;99386.56;6279333;28;20281;-69
2024/01/02 05:47:57;;;;;;;4.60;1.42;;;;;;;6.01;100.00;99375.81;6279552;28;20052;-70
2024/01/02 05:50:59;;;;;;;3.65;0.88;;;;;;;5.99;100.00;99362.00;6279668;28;20053;-69
2024/01/02 05:54:00;;;;;;;7.15;0.90;;;;;;;5.93;100.00;99367.56;6279152;28;20041;-69
2024/01/02 05:57:03;;;;;;;3.22;1.00;;;;;;;5.88;100.00;99359.16;6278772;28;20049;-69
2024/01/02 06:00:07;;;;;;;2.97;0.98;;;;;;;5.82;100.00;99347.31;6279438;28;20242;-69
2024/01/02 06:03:08;;;;;;;4.75;1.60;;;;;;;5.83;100.00;99347.22;6278924;28;20421;-69
2024/01/02 06:06:09;;;;;;;3.63;1.08;;;;;;;5.84;100.00;99340.22;6278445;28;20041;-69
2024/01/02 06:09:11;;;;;;;4.25;1.40;;;;;;;5.85;100.00;99324.47;6278865;28;20037;-70
2024/01/02 06:12:13;;;;;;;7.45;1.27;;;;;;;5.87;100.00;99318.38;6278972;28;20044;-69
2024/01/02 06:15:15;;;;;;;9.40;1.20;;;;;;;5.90;100.00;99312.97;6278286;28;20434;-69
2024/01/02 06:18:16;;;;;;;5.63;1.30;;;;;;;5.89;100.00;99314.72;6279038;28;20041;-69
2024/01/02 06:21:18;;;;;;;3.20;1.40;;;;;;;5.94;100.00;99307.50;6278892;28;20132;-69
2024/01/02 06:24:19;;;;;;;4.28;1.50;;;;;;;5.96;100.00;99299.63;6278293;28;20045;-69
2024/01/02 06:27:22;;;;;;;7.90;1.40;;;;;;;5.91;100.00;99281.59;6278138;28;20361;-69
2024/01/02 06:30:23;;;;;;;4.97;1.00;;;;;;;5.91;100.00;99265.13;6270329;28;20045;-69
2024/01/02 06:33:25;;;;;;;5.13;1.33;;;;;;;5.89;100.00;99265.19;6278450;28;20083;-69
2024/01/02 06:36:26;;;;;;;2.97;1.13;;;;;;;5.95;100.00;99256.19;6277779;28;20061;-69
2024/01/02 06:39:27;;;;;;;2.97;0.80;;;;;;;5.98;100.00;99249.03;6278620;28;20057;-69
2024/01/02 06:42:30;;;;;;;3.45;1.33;;;;;;;5.97;100.00;99243.94;6277472;28;20453;-69
2024/01/02 06:45:31;;;;;;;7.57;1.00;;;;;;;5.99;100.00;99242.06;6277667;28;20048;-69
2024/01/02 06:48:33;;;;;;;4.35;0.85;;;;;;;5.96;100.00;99244.88;6278062;28;20048;-69
2024/01/02 06:51:34;;;;;;;1.80;0.68;;;;;;;5.97;100.00;99238.72;6278199;28;20055;-69
2024/01/02 06:54:35;;;;;;;3.35;0.90;;;;;;;5.99;100.00;99247.28;6277359;28;20143;-69
2024/01/02 06:57:39;;;;;;;2.83;0.80;;;;;;;5.98;100.00;99241.22;6277934;28;20049;-69
2024/01/02 07:00:40;;;;;;;5.47;0.70;;;;;;;6.00;100.00;99241.16;6277993;28;20055;-69
2024/01/02 07:03:41;;;;;;;0.60;0.60;;;;;;;5.99;100.00;99226.41;6277601;28;20045;-69
2024/01/02 07:06:43;;;;;;;1.35;0.75;;;;;;;6.04;100.00;99214.81;6277057;28;20060;-69
2024/01/02 07:09:44;;;;;;;0.90;0.57;;;;;;;5.99;100.00;99189.91;6277367;28;20059;-69
2024/01/02 07:12:47;;;;;;;2.10;0.68;;;;;;;5.97;100.00;99208.25;6277543;28;20056;-69
2024/01/02 07:15:49;;;;;;;0.63;0.55;;;;;;;6.00;100.00;99212.47;6276747;28;20045;-69
2024/01/02 07:18:51;;;;;;;3.08;0.60;;;;;;;6.03;100.00;99213.09;6277666;28;20040;-69
2024/01/02 07:21:52;;;;;;;6.90;0.82;;;;;;;5.99;100.00;99188.13;6277213;28;20048;-69
2024/01/02 07:24:53;;;;;;;4.53;0.60;;;;;;;5.98;100.00;99175.22;6276968;28;20425;-69
2024/01/02 07:27:56;;;;;;;1.13;0.50;;;;;;;5.93;100.00;99164.22;6277353;28;20048;-69
2024/01/02 07:30:57;;;;;;;1.55;0.40;;;;;;;5.87;100.00;99164.56;6277237;28;20056;-69
2024/01/02 07:33:59;;;;;;;3.55;0.47;;;;;;;5.81;100.00;99156.19;6276870;28;20353;-69
2024/01/02 07:37:02;;;;;;;0.30;0.25;;;;;;;5.80;100.00;99151.03;6276465;28;20045;-69
2024/01/02 07:40:03;;;;;;;0.52;0.40;;;;;;;5.80;100.00;99159.69;6276972;28;20461;-69
2024/01/02 07:43:06;;;;;;;1.63;0.43;;;;;;;5.81;100.00;99150.09;6276660;28;20091;-70
2024/01/02 07:46:08;;;;;;;0.90;0.30;;;;;;;5.84;100.00;99137.72;6276250;28;20056;-69
2024/01/02 07:49:09;;;;;;;0.57;0.40;;;;;;;5.77;100.00;99133.81;6276574;28;20052;-69
2024/01/02 07:52:10;;;;;;;0.80;0.40;;;;;;;5.82;100.00;99121.34;6276278;28;20353;-70
2024/01/02 07:55:12;;;;;;;1.67;0.40;;;;;;;5.78;100.00;99125.06;6275409;28;20044;-69
2024/01/02 07:58:15;;;;;;;0.28;0.28;;;;;;;5.80;100.00;99110.16;6276988;28;20465;-69
2024/01/02 08:01:17;;;;;;;0.20;0.20;;;;;;;5.88;100.00;99111.47;6276599;28;20124;-69
2024/01/02 08:04:19;;;;;;;0.17;0.17;;;;;;;5.83;100.00;99111.75;6276052;28;20357;-69
2024/01/02 08:07:20;;;;;;;0.13;0.13;;;;;;;5.72;100.00;99101.13;6275734;28;20052;-69
2024/01/02 08:10:21;;;;;;;0.30;0.30;;;;;;;5.71;100.00;99087.25;6276084;28;20045;-70
2024/01/02 08:13:24;;;;;;;1.10;0.30;;;;;;;5.67;100.00;99088.38;6276293;28;20056;-69
2024/01/02 08:16:25;;;;;;;0.77;0.30;;;;;;;5.61;100.00;99083.53;6267418;28;20048;-70
2024/01/02 08:19:27;;;;;;;0.28;0.20;;;;;;;5.63;100.00;99080.81;6276142;28;20446;-69
2024/01/02 08:22:28;;;;;;;2.53;0.30;;;;;;;5.64;100.00;99079.91;6275619;28;20446;-70
2024/01/02 08:25:30;;;;;;;0.20;0.20;;;;;;;5.60;100.00;99067.06;6275528;28;20044;-70
2024/01/02 08:28:32;;;;;;;0.13;0.10;;;;;;;5.57;100.00;99054.22;6275715;28;20045;-70
2024/01/02 08:31:35;;;;;;;0.65;0.32;;;;;;;5.60;100.00;99059.25;6275871;28;20052;-69
2024/01/02 08:34:36;;;;;;;4.22;0.25;;;;;;;5.58;100.00;99045.47;6274991;28;20049;-69
2024/01/02 08:37:37;;;;;;;0.13;0.10;;;;;;;5.54;100.00;99041.38;6275376;28;20052;-70
2024/01/02 08:40:39;;;;;;;0.13;0.13;;;;;;;5.55;100.00;99037.84;6275595;28;20505;-69
2024/01/02 08:43:41;;;;;;;0.20;0.20;;;;;;;5.48;100.00;99025.28;6275154;28;20048;-69
2024/01/02 08:46:43;;;;;;;0.90;0.30;;;;;;;5.54;100.00;99035.31;6274848;28;20179;-70
2024/01/02 08:49:45;;;;;;;0.10;0.10;;;;;;;5.68;100.00;99032.75;6275171;28;20452;-69
2024/01/02 08:52:47;;;;;;;1.00;0.20;;;;;;;5.60;100.00;99027.16;6275149;28;20044;-69
2024/01/02 08:55:49;;;;;;;0.10;0.10;;;;;;;5.59;100.00;99030.69;6274752;28;20057;-69
2024/01/02 08:58:52;;;;;;;0.52;0.20;;;;;;;5.62;100.00;99019.22;6275627;28;20168;-69
2024/01/02 09:01:53;;;;;;;0.00;0.00;;;;;;;5.77;100.00;99026.13;6275105;28;20052;-70
2024/01/02 09:04:54;;;;;;;0.65;0.30;;;;;;;5.67;100.00;99022.38;6274536;28;20045;-70
2024/01/02 09:07:56;;;;;;;0.40;0.40;;;;;;;5.72;100.00;99023.81;6274931;28;20357;-70
2024/01/02 09:10:57;;;;;;;0.13;0.13;;;;;;;5.77;100.00;99018.31;6274856;28;20041;-70
2024/01/02 09:14:00;;;;;;;2.47;0.30;;;;;;;5.81;100.00;99028.44;6274915;28;20445;-70
2024/01/02 09:17:01;;;;;;;0.35;0.20;;;;;;;5.71;100.00;99023.88;6282720;28;20052;-69
2024/01/02 09:20:04;;;;;;;0.08;0.08;;;;;;;5.51;100.00;99015.50;6274923;28;20346;-68
2024/01/02 09:23:06;;;;;;;0.20;0.20;;;;;;;5.56;100.00;99012.63;6274714;28;20045;-69
2024/01/02 09:26:08;;;;;;;0.40;0.30;;;;;;;5.59;100.00;99022.88;6274497;28;20049;-69
2024/01/02 09:29:11;;;;;;;0.30;0.22;;;;;;;5.63;100.00;99032.16;6274559;28;20319;-69
2024/01/02 09:32:12;;;;;;;5.38;0.32;;;;;;;5.64;100.00;99022.59;6274712;28;20045;-70
2024/01/02 09:35:14;;;;;;;0.38;0.13;;;;;;;5.64;100.00;99019.97;6274232;28;20055;-70
2024/01/02 09:38:16;;;;;;;0.10;0.10;;;;;;;5.71;100.00;99027.31;6274673;28;20052;-70
2024/01/02 09:41:36;;;;;;;0.10;0.10;;;;;;;5.68;100.00;99019.72;6274491;28;20167;-69
2024/01/02 09:44:53;;;;;;;0.80;0.40;;;;;;;5.65;100.00;99027.69;6273850;28;20045;-69
2024/01/02 09:48:12;;;;;;;0.10;0.10;;;;;;;5.75;100.00;99034.03;6274597;28;20330;-69
2024/01/02 09:51:32;;;;;;;0.22;0.22;;;;;;;5.80;100.00;99031.97;6274782;28;20064;-69
2024/01/02 09:54:45;;;;;;;0.20;0.20;;;;;;;5.87;100.00;99026.41;6273816;28;20365;-70
2024/01/02 09:57:56;;;;;;;0.35;0.30;;;;;;;5.91;100.00;99015.69;6274659;28;20052;-69
2024/01/02 10:01:17;;;;;;;0.43;0.35;;;;;;;5.92;100.00;99012.16;6274624;28;20048;-69
2024/01/02 10:04:45;;;;;;;0.20;0.20;;;;;;;5.88;100.00;98997.63;6273933;28;20089;-70
2024/01/02 10:08:15;;;;;;;0.38;0.30;;;;;;;5.94;100.00;98999.88;6274360;28;20049;-69
2024/01/02 10:11:31;;;;;;;0.20;0.20;;;;;;;5.93;100.00;98987.75;6274275;28;20045;-70
2024/01/02 10:14:48;;;;;;;0.10;0.10;;;;;;;5.85;100.00;98992.59;6273606;28;20056;-69
2024/01/02 10:17:58;;;;;;;0.40;0.38;;;;;;;5.96;100.00;98989.34;6277510;28;20048;-69
2024/01/02 10:21:08;;;;;;;0.60;0.40;;;;;;;5.97;100.00;98980.59;6278919;28;20446;-69
2024/01/02 10:24:24;;;;;;;0.65;0.63;;;;;;;6.00;100.00;98981.25;6278757;28;20049;-70
2024/01/02 10:27:37;;;;;;;0.60;0.60;;;;;;;5.97;100.00;98964.94;6277887;28;20049;-70
2024/01/02 10:30:46;;;;;;;0.43;0.30;;;;;;;6.04;100.00;98956.66;6278752;28;20052;-69
2024/01/02 10:33:57;;;;;;;0.35;0.35;;;;;;;6.10;100.00;98981.50;6278346;28;20049;-70
2024/01/02 10:37:05;;;;;;;0.95;0.60;;;;;;;6.13;100.00;98970.03;6277743;28;20353;-69
2024/01/02 10:40:09;;;;;;;0.82;0.57;;;;;;;6.14;100.00;98962.13;6278363;28;20048;-69
2024/01/02 10:43:26;;;;;;;2.42;1.85;;;;;;;6.23;100.00;98969.34;6278268;28;20107;-69
2024/01/02 10:46:38;;;;;;;0.40;0.40;;;;;;;6.26;100.00;98956.09;6277592;28;20071;-70
2024/01/02 10:49:41;;;;;;;0.45;0.40;;;;;;;6.32;100.00;98962.72;6278062;28;20345;-70
2024/01/02 10:52:55;;;;;;;0.88;0.60;;;;;;;6.39;100.00;98961.38;6277755;28;20053;-70
2024/01/02 10:56:06;;;;;;;0.70;0.68;;;;;;;6.46;100.00;98961.81;6277725;28;20057;-70
2024/01/02 10:59:28;;;;;;;0.88;0.70;;;;;;;6.52;100.00;98957.03;6278171;28;20045;-69
2024/01/02 11:02:40;;;;;;;1.13;0.77;;;;;;;6.61;100.00;98958.19;6277728;28;20060;-70
2024/01/02 11:05:46;;;;;;;0.60;0.60;;;;;;;6.64;100.00;98967.63;6276932;28;20049;-70
2024/01/02 11:08:57;;;;;;;0.80;0.70;;;;;;;6.68;100.00;98971.69;6277788;28;20078;-70
2024/01/02 11:12:00;;;;;;;1.30;1.10;;;;;;;6.71;100.00;98969.69;6277486;28;20044;-69
2024/01/02 11:15:03;;;;;;;2.88;1.30;;;;;;;6.81;100.00;98964.69;6277320;28;20090;-70
2024/01/02 11:18:07;;;;;;;1.67;1.00;;;;;;;6.90;100.00;98960.63;6277608;28;20051;-70
2024/01/02 11:21:14;;;;;;;0.95;0.70;;;;;;;7.01;100.00;98959.00;6277648;28;20040;-70
2024/01/02 11:24:20;;;;;;;1.25;1.05;;;;;;;7.03;100.00;98962.31;6276996;28;20045;-70
2024/01/02 11:27:24;;;;;;;2.17;1.08;;;;;;;7.12;100.00;98960.88;6276752;28;20346;-69
2024/01/02 11:30:32;;;;;;;1.35;1.05;;;;;;;7.22;100.00;98950.63;6277151;28;20049;-70
2024/01/02 11:33:40;;;;;;;1.48;0.90;;;;;;;7.31;100.00;98950.00;6276992;28;20056;-70
2024/01/02 11:36:58;;;;;;;2.63;1.13;;;;;;;7.43;100.00;98951.78;6276346;28;20052;-70
2024/01/02 11:40:09;;;;;;;1.42;1.17;;;;;;;7.49;100.00;98951.34;6277148;28;20052;-69
2024/01/02 11:43:20;;;;;;;5.68;1.60;;;;;;;7.56;100.00;98949.16;6276743;28;20357;-70
2024/01/02 11:46:25;;;;;;;2.65;1.00;;;;;;;7.66;100.00;98942.31;6276265;28;20059;-70
2024/01/02 11:49:28;;;;;;;3.22;1.80;;;;;;;7.69;100.00;98942.13;6277076;28;20048;-70
2024/01/02 11:52:33;;;;;;;4.07;1.77;;;;;;;7.79;100.00;98939.69;6268418;28;20122;-70
2024/01/02 11:55:41;;;;;;;2.58;1.40;;;;;;;7.84;100.00;98930.56;6276110;28;20056;-70
2024/01/02 11:58:47;;;;;;;5.45;1.55;;;;;;;7.93;100.00;98926.47;6276660;28;20349;-70
2024/01/02 12:01:57;;;;;;;2.30;1.70;;;;;;;7.96;100.00;98925.41;6276314;28;20048;-70
2024/01/02 12:05:10;;;;;;;3.25;1.90;;;;;;;8.06;100.00;98915.94;6276029;28;20048;-69
2024/01/02 12:08:21;;;;;;;3.55;1.88;;;;;;;8.14;100.00;98913.63;6276351;28;20056;-69
2024/01/02 12:11:25;;;;;;;5.63;2.25;;;;;;;8.25;100.00;98904.97;6276229;28;20044;-69
2024/01/02 12:14:41;;;;;;;2.15;1.50;;;;;;;8.37;100.00;98897.09;6276187;28;20080;-69
2024/01/02 12:17:47;;;;;;;2.78;1.83;;;;;;;8.52;100.00;98883.81;6276059;28;20052;-68
2024/01/02 12:20:54;;;;;;;3.03;2.33;;;;;;;8.60;100.00;98886.69;6276324;28;20449;-69
2024/01/02 12:23:57;;;;;;;5.78;2.17;;;;;;;8.67;100.00;98890.50;6275846;28;20342;-70
2024/01/02 12:26:59;;;;;;;5.50;2.58;;;;;;;8.70;100.00;98879.81;6275530;28;20361;-69
2024/01/02 12:30:04;;;;;;;4.30;2.50;;;;;;;8.74;100.00;98876.03;6275832;28;20040;-69
2024/01/02 12:33:13;;;;;;;9.27;3.38;;;;;;;8.78;100.00;98872.22;6275429;28;20353;-69
2024/01/02 12:36:24;;;;;;;7.07;2.97;;;;;;;8.81;100.00;98858.91;6274995;28;20043;-70
2024/01/02 12:39:39;;;;;;;6.38;3.35;;;;;;;8.84;100.00;98868.28;6275315;28;20049;-69
2024/01/02 12:42:47;;;;;;;4.68;2.90;;;;;;;8.98;100.00;98862.00;6275330;28;20052;-70
2024/01/02 12:45:52;;;;;;;7.07;2.77;;;;;;;9.00;100.00;98857.47;6275023;28;20056;-69
2024/01/02 12:49:09;;;;;;;7.38;2.25;;;;;;;9.01;100.00;98861.75;6275477;28;20175;-70
2024/01/02 12:52:17;;;;;;;6.90;2.83;;;;;;;9.04;100.00;98857.13;6275334;28;20507;-71
2024/01/02 12:55:21;;;;;;;5.57;2.20;;;;;;;9.09;100.00;98848.91;6274838;28;20045;-69
2024/01/02 12:58:25;;;;;;;5.90;2.78;;;;;;;9.11;100.00;98849.63;6275463;28;20049;-69
2024/01/02 13:01:27;;;;;;;3.53;2.00;;;;;;;9.07;100.00;98841.16;6275179;28;20044;-70
2024/01/02 13:04:28;;;;;;;5.85;2.50;;;;;;;9.11;100.00;98850.44;6275024;28;20049;-70
2024/01/02 13:07:32;;;;;;;6.97;2.58;;;;;;;9.11;100.00;98855.69;6274573;28;20052;-70
2024/01/02 13:10:37;;;;;;;5.20;2.88;;;;;;;9.21;100.00;98847.09;6275383;28;20350;-70
2024/01/02 13:13:39;;;;;;;6.40;2.88;;;;;;;9.23;100.00;98848.66;6275021;28;20496;-70
2024/01/02 13:16:40;;;;;;;5.47;2.97;;;;;;;9.29;100.00;98842.09;6274424;28;20053;-69
2024/01/02 13:19:43;;;;;;;5.82;2.78;;;;;;;9.26;100.00;98843.16;6275050;28;20449;-69
2024/01/02 13:22:45;;;;;;;4.32;2.53;;;;;;;9.26;100.00;98834.47;6274486;28;20322;-70
2024/01/02 13:25:48;;;;;;;6.20;2.38;;;;;;;9.29;100.00;98837.69;6274652;28;20060;-70
2024/01/02 13:28:50;;;;;;;7.93;2.78;;;;;;;9.30;100.00;98833.28;6275006;28;20049;-70
2024/01/02 13:31:53;;;;;;;4.70;2.63;;;;;;;9.28;100.00;98825.53;6274960;28;20405;-70
2024/01/02 13:34:56;;;;;;;5.15;2.60;;;;;;;9.25;100.00;98827.56;6274149;28;20107;-70
2024/01/02 13:38:00;;;;;;;5.35;2.55;;;;;;;9.30;100.00;98825.41;6274533;28;20056;-71
2024/01/02 13:41:04;;;;;;;3.80;2.65;;;;;;;9.32;100.00;98816.50;6274673;28;20049;-69
2024/01/02 13:44:09;;;;;;;5.75;2.58;;;;;;;9.38;100.00;98829.09;6274579;28;20107;-70
2024/01/02 13:47:10;;;;;;;5.28;3.10;;;;;;;9.39;100.00;98822.91;6274002;28;20048;-69
2024/01/02 13:50:12;;;;;;;7.00;2.92;;;;;;;9.46;100.00;98827.66;6274504;28;20053;-70
2024/01/02 13:53:14;;;;;;;5.20;2.53;;;;;;;9.57;100.00;98815.34;6278116;28;20041;-69
2024/01/02 13:56:17;;;;;;;5.78;2.90;;;;;;;9.59;100.00;98813.47;6278957;28;20365;-69
2024/01/02 13:59:18;;;;;;;6.30;3.33;;;;;;;9.56;100.00;98810.25;6279718;28;20056;-70
2024/01/02 14:02:23;;;;;;;5.13;2.92;;;;;;;9.58;100.00;98809.19;6278912;28;20354;-71
2024/01/02 14:05:26;;;;;;;5.90;3.55;;;;;;;9.57;100.00;98791.75;6278947;28;20098;-71
2024/01/02 14:08:29;;;;;;;7.80;3.05;;;;;;;9.51;100.00;98792.25;6278895;28;20045;-70
2024/01/02 14:11:31;;;;;;;7.80;2.88;;;;;;;9.44;100.00;98785.81;6279225;28;20453;-71
2024/01/02 14:14:42;;;;;;;7.60;3.75;;;;;;;9.54;100.00;98791.19;6278194;28;20049;-69
2024/01/02 14:17:44;;;;;;;8.68;3.65;;;;;;;9.53;100.00;98771.97;6279010;28;20048;-71
2024/01/02 14:20:55;;;;;;;7.93;3.38;;;;;;;9.53;100.00;98768.53;6278782;28;20346;-70
2024/01/02 14:24:03;;;;;;;6.90;3.17;;;;;;;9.51;100.00;98770.44;6278808;28;20438;-70